Rushville, OH (43150)

8:32 AM EDT on July 30, 2016 (GMT -0400)
Northern Lancaster Area | | Change Station

Elev 1000 ft 39.76 °N, 82.57 °W | Updated 20 seconds ago

Mostly Cloudy
Mostly Cloudy
71.6 °F
Feels Like 71.6 °F
N
3.0
Wind Variable Wind from South
Gusts 5.0 mph

Today
High -- | Low -- °F
--% Chance of Precip.
Yesterday
High -- | Low -- °F
Precip. -- in
Pressure 29.97 in
Visibility 10.0 miles
Clouds Mostly Cloudy 1500 ft
Dew Point 71 °F
Humidity 99%
Rainfall 0.11 in
Snow Depth Not available.
6:27 AM 8:44 PM
Waning Crescent, 13% visible
SPECI KLHQ 301226Z AUTO 00000KT 10SM BKN015 22/21 A2997 RMK AO2 T02170211
Pressure 29.97 in
Visibility 10.0 miles
Clouds Mostly Cloudy 1500 ft
Dew Point 71 °F
Humidity 99%
Rainfall 0.11 in
Snow Depth Not available.
6:27 AM 8:44 PM
Waning Crescent, 13% visible
SPECI KLHQ 301226Z AUTO 00000KT 10SM BKN015 22/21 A2997 RMK AO2 T02170211

10-Day Weather Forecast

Almanac

Astronomy

Jul. 30, 2016 Rise Set
Actual Time
Civil Twilight
Nautical Twilight
Astronomical Twilight
Moon
Length of Visible Light
Length of Day
Tomorrow will be .
, % of the Moon is Illuminated

Today's Extremes

State Highs State Lows

Community

WunderPhotos

Upload Photos

1,928,544 photos uploaded!

WunderBlog® & News

Nearby

Air Quality

  Air Quality AQ Index Pollutant
Not available.

Snow Depth

Station Depth Elevation

Earthquake Activity

City Distance Mag. Time & Date
Minimum magnitude displayed is 2.5.

Coastal Water Temperatures

Place Temperature

Stations

Nearby Weather Stations

Station Location Temp. Windchill Dew Point Humidity Wind Precip. Elev Updated Type
                   

Watches & Warnings

There are currently no watches in effect.